Time;durP1;ratioP1;P1;durP2;ratioP2;P2;SDS_P1;SDS_P2;PMS_P1;PMS_P2;Temp;Humidity;BMP_temperature;BMP_pressure;BME280_temperature;BME280_humidity;BME280_pressure;Samples;Min_cycle;Max_cycle;Signal;HPM_P1;HPM_P2
2022/10/20 00:01:10;;;;;;;11.82;5.25;;;7.80;99.90;;;;;;5011818;28;20068;-82
2022/10/20 00:03:37;;;;;;;17.23;5.90;;;7.40;99.90;;;;;;5026860;28;20539;-81
2022/10/20 00:06:26;;;;;;;9.70;5.20;;;7.60;99.90;;;;;;5012259;28;20054;-80
2022/10/20 00:08:54;;;;;;;13.65;4.78;;;7.30;99.90;;;;;;5012055;28;20077;-85
2022/10/20 00:11:21;;;;;;;11.93;5.00;;;8.00;99.90;;;;;;5011953;28;20069;-81
2022/10/20 00:13:48;;;;;;;12.57;5.20;;;7.30;99.90;;;;;;5011566;28;20061;-81
2022/10/20 00:16:14;;;;;;;11.48;5.10;;;7.30;99.90;;;;;;5011437;28;20037;-81
2022/10/20 00:18:39;;;;;;;14.35;5.60;;;7.20;99.90;;;;;;5011469;28;20407;-82
2022/10/20 00:21:14;;;;;;;13.10;4.95;;;7.20;99.90;;;;;;4994534;28;20385;-81
2022/10/20 00:23:40;;;;;;;7.90;4.88;;;7.60;99.90;;;;;;5012002;28;20512;-81
2022/10/20 00:26:13;;;;;;;10.95;5.32;;;7.40;99.90;;;;;;5011232;28;20519;-85
2022/10/20 00:28:39;;;;;;;10.95;5.75;;;7.20;99.90;;;;;;5011262;28;20037;-83
2022/10/20 00:31:05;;;;;;;14.70;5.13;;;7.20;99.90;;;;;;5011670;28;20034;-82
2022/10/20 00:33:31;;;;;;;13.75;5.05;;;7.10;99.90;;;;;;4976709;28;20065;-85
2022/10/20 00:36:01;;;;;;;14.18;5.47;;;7.10;99.90;;;;;;4993424;28;20046;-82
2022/10/20 00:38:27;;;;;;;12.35;5.68;;;7.10;99.90;;;;;;5011544;28;20485;-82
2022/10/20 00:40:53;;;;;;;10.52;4.93;;;7.10;99.90;;;;;;5011668;28;20049;-82
2022/10/20 00:43:18;;;;;;;13.52;5.60;;;7.20;99.90;;;;;;5011071;28;20038;-83
2022/10/20 00:45:51;;;;;;;10.20;5.30;;;7.10;99.90;;;;;;4993877;28;20464;-82
2022/10/20 00:48:20;;;;;;;11.45;5.13;;;7.10;99.90;;;;;;4993518;28;20117;-81
2022/10/20 00:50:49;;;;;;;11.68;5.38;;;7.00;99.90;;;;;;4993657;28;20100;-83
2022/10/20 00:53:17;;;;;;;10.35;5.88;;;7.00;99.90;;;;;;5011058;28;20444;-84
2022/10/20 00:55:46;;;;;;;9.23;5.00;;;7.00;99.90;;;;;;4993812;28;20069;-81
2022/10/20 00:58:12;;;;;;;9.55;4.85;;;7.00;99.90;;;;;;4993559;28;20050;-83
2022/10/20 01:00:40;;;;;;;9.40;5.20;;;6.90;99.90;;;;;;4993808;28;20038;-83
2022/10/20 01:03:11;;;;;;;18.92;5.82;;;6.90;99.90;;;;;;4992957;28;20496;-81
2022/10/20 01:05:37;;;;;;;13.48;5.20;;;6.90;99.90;;;;;;5009614;28;20505;-83
2022/10/20 01:08:03;;;;;;;10.65;5.53;;;6.90;99.90;;;;;;5011161;28;20584;-83
2022/10/20 01:10:38;;;;;;;20.25;5.97;;;6.90;99.90;;;;;;4993344;28;20132;-82
2022/10/20 01:13:22;;;;;;;9.02;4.93;;;6.90;99.90;;;;;;5025795;28;20077;-82
2022/10/20 01:16:07;;;;;;;14.77;5.30;;;6.90;99.90;;;;;;4976571;28;20084;-80
2022/10/20 01:19:05;;;;;;;14.65;5.28;;;6.80;99.90;;;;;;5009512;28;20111;-83
2022/10/20 01:21:49;;;;;;;15.45;5.63;;;6.80;99.90;;;;;;5003415;28;20054;-83
2022/10/20 01:24:36;;;;;;;10.38;5.15;;;6.80;99.90;;;;;;4993534;28;20050;-82
2022/10/20 01:27:29;;;;;;;14.90;5.72;;;6.70;99.90;;;;;;4991378;28;20054;-80
2022/10/20 01:35:25;;;;;;;11.15;5.35;;;6.60;99.90;;;;;;5026919;28;20531;-81
2022/10/20 01:37:58;;;;;;;17.52;6.30;;;6.70;99.90;;;;;;5012203;28;20119;-83
2022/10/20 01:40:53;;;;;;;16.75;5.45;;;6.60;99.90;;;;;;5030915;28;20088;-81
2022/10/20 01:43:22;;;;;;;16.20;5.17;;;6.60;99.90;;;;;;5028477;28;20056;-83
2022/10/20 01:45:51;;;;;;;10.98;5.78;;;6.80;99.90;;;;;;5011858;28;20045;-80
2022/10/20 01:48:22;;;;;;;9.48;5.32;;;6.60;99.90;;;;;;5032894;28;20052;-81
2022/10/20 01:50:49;;;;;;;8.68;5.07;;;6.60;99.90;;;;;;5049862;28;20045;-81
2022/10/20 01:53:16;;;;;;;10.45;5.22;;;7.00;99.90;;;;;;5050119;28;20044;-82
2022/10/20 01:55:42;;;;;;;12.10;5.60;;;6.60;99.90;;;;;;5050066;28;20515;-83
2022/10/20 01:58:10;;;;;;;11.85;4.75;;;6.50;99.90;;;;;;5033035;28;20053;-81
2022/10/20 02:00:38;;;;;;;11.20;5.15;;;6.50;99.90;;;;;;5029755;28;20534;-82
2022/10/20 02:03:25;;;;;;;12.65;5.70;;;6.50;99.90;;;;;;5048625;28;20048;-81
2022/10/20 02:06:10;;;;;;;13.55;5.28;;;6.50;99.90;;;;;;5036602;28;20675;-82
2022/10/20 02:08:45;;;;;;;18.50;5.40;;;6.50;99.90;;;;;;5005981;28;20056;-81
2022/10/20 02:11:38;;;;;;;10.07;4.90;;;6.90;99.90;;;;;;5049675;28;20041;-81
2022/10/20 02:14:06;;;;;;;14.52;4.78;;;6.40;99.90;;;;;;5030289;28;20047;-81
2022/10/20 02:16:51;;;;;;;10.65;5.78;;;6.40;99.90;;;;;;5029927;28;20053;-83
2022/10/20 02:19:19;;;;;;;12.95;5.40;;;6.70;99.90;;;;;;5012420;28;20054;-80
2022/10/20 02:21:46;;;;;;;10.45;4.78;;;6.40;99.90;;;;;;5024511;28;20054;-83
2022/10/20 02:24:32;;;;;;;10.55;5.15;;;7.00;99.90;;;;;;5087692;23;20053;-81
2022/10/20 02:27:02;;;;;;;10.52;5.50;;;6.40;99.90;;;;;;4986704;28;20062;-81
2022/10/20 02:29:34;;;;;;;11.85;5.45;;;7.10;99.90;;;;;;4988787;28;20045;-82
2022/10/20 02:32:00;;;;;;;9.43;5.22;;;6.30;99.90;;;;;;4990217;28;20058;-81
2022/10/20 02:34:26;;;;;;;12.20;5.43;;;6.80;99.90;;;;;;4990243;28;20070;-83
2022/10/20 02:36:56;;;;;;;11.75;5.63;;;6.30;99.90;;;;;;4988804;28;20391;-81
2022/10/20 02:39:21;;;;;;;17.50;5.03;;;6.30;99.90;;;;;;4989962;28;20042;-82
2022/10/20 02:41:47;;;;;;;10.57;5.40;;;6.30;99.90;;;;;;4990060;28;20047;-84
2022/10/20 02:44:12;;;;;;;13.25;5.43;;;6.80;99.90;;;;;;4989489;28;20049;-83
2022/10/20 02:46:38;;;;;;;12.35;5.35;;;6.30;99.90;;;;;;4988552;28;20401;-83
2022/10/20 02:49:04;;;;;;;12.05;5.65;;;6.30;99.90;;;;;;5014947;28;20050;-83
2022/10/20 02:51:30;;;;;;;13.63;6.05;;;6.30;99.90;;;;;;4988320;28;20454;-83
2022/10/20 02:53:55;;;;;;;12.18;5.88;;;6.20;99.90;;;;;;4989166;28;20060;-84
2022/10/20 02:56:21;;;;;;;11.15;5.43;;;6.50;99.90;;;;;;4990014;28;20077;-84
2022/10/20 02:58:47;;;;;;;13.18;5.78;;;6.20;99.90;;;;;;4975497;28;20202;-83
2022/10/20 03:01:13;;;;;;;11.27;5.55;;;6.20;99.90;;;;;;4987780;28;21605;-83
2022/10/20 03:03:39;;;;;;;11.00;5.38;;;6.20;99.90;;;;;;4993690;28;20050;-83
2022/10/20 03:06:13;;;;;;;15.57;6.22;;;6.20;99.90;;;;;;4993647;28;20089;-86
2022/10/20 03:08:39;;;;;;;10.88;5.78;;;6.20;99.90;;;;;;4975177;28;20085;-84
2022/10/20 03:11:05;;;;;;;9.40;6.15;;;6.20;99.90;;;;;;4992495;28;20092;-89
2022/10/20 03:13:31;;;;;;;12.93;5.45;;;6.20;99.90;;;;;;4993901;28;20053;-87
2022/10/20 03:15:59;;;;;;;14.55;5.38;;;6.20;99.90;;;;;;4993260;28;20047;-83
2022/10/20 03:18:25;;;;;;;13.20;5.75;;;6.20;99.90;;;;;;4992938;28;20070;-82
2022/10/20 03:20:52;;;;;;;10.32;5.82;;;6.20;99.90;;;;;;4993291;28;20465;-83
2022/10/20 03:23:18;;;;;;;15.27;6.15;;;6.20;99.90;;;;;;4993300;28;20481;-84
2022/10/20 03:25:43;;;;;;;12.18;5.55;;;6.20;99.90;;;;;;4991996;28;20105;-83
2022/10/20 03:28:09;;;;;;;9.23;5.80;;;6.20;99.90;;;;;;4975307;28;20082;-86
2022/10/20 03:30:35;;;;;;;12.38;5.65;;;6.20;99.90;;;;;;4993330;28;20034;-84
2022/10/20 03:33:00;;;;;;;13.82;6.20;;;6.20;99.90;;;;;;4992925;28;20050;-85
2022/10/20 03:35:26;;;;;;;14.50;6.25;;;6.20;99.90;;;;;;4992730;28;20081;-86
2022/10/20 03:37:51;;;;;;;12.07;6.25;;;6.30;99.90;;;;;;4992475;28;20050;-84
2022/10/20 03:40:17;;;;;;;10.80;5.93;;;6.30;99.90;;;;;;4974446;28;20130;-84
2022/10/20 03:42:43;;;;;;;14.50;6.30;;;6.20;99.90;;;;;;4975481;28;20069;-84
2022/10/20 03:45:09;;;;;;;11.52;6.25;;;6.90;99.90;;;;;;4975297;28;20042;-84
2022/10/20 03:47:35;;;;;;;11.82;6.38;;;6.10;99.90;;;;;;4992463;28;20046;-84
2022/10/20 03:50:00;;;;;;;13.88;6.18;;;6.10;99.90;;;;;;4975309;28;20043;-84
2022/10/20 03:52:26;;;;;;;10.07;6.47;;;6.10;99.90;;;;;;4992692;28;20081;-86
2022/10/20 03:54:52;;;;;;;12.25;6.53;;;6.10;99.90;;;;;;4975013;28;20050;-86
2022/10/20 03:57:18;;;;;;;12.02;6.80;;;6.10;99.90;;;;;;4992042;28;20066;-87
2022/10/20 03:59:44;;;;;;;13.70;6.90;;;6.80;99.90;;;;;;4992944;28;20129;-87
2022/10/20 04:02:27;;;;;;;13.23;6.47;;;6.10;99.90;;;;;;5011507;28;20121;-85
2022/10/20 04:04:53;;;;;;;14.27;7.03;;;6.10;99.90;;;;;;4992655;28;20046;-83
2022/10/20 04:07:18;;;;;;;12.07;6.47;;;6.10;99.90;;;;;;4992458;28;20043;-83
2022/10/20 04:09:44;;;;;;;15.57;7.78;;;6.10;99.90;;;;;;5006845;28;20393;-84
2022/10/20 04:12:10;;;;;;;11.18;6.45;;;6.10;99.90;;;;;;4992572;28;20121;-84
2022/10/20 04:14:35;;;;;;;13.75;7.20;;;6.10;99.90;;;;;;5007803;28;20425;-83
2022/10/20 04:17:01;;;;;;;18.40;7.30;;;6.10;99.90;;;;;;4992454;28;20042;-84
2022/10/20 04:19:26;;;;;;;11.32;6.97;;;6.10;99.90;;;;;;4991782;28;20051;-82
2022/10/20 04:21:52;;;;;;;12.43;6.63;;;6.10;99.90;;;;;;4974652;28;20461;-81
2022/10/20 04:24:18;;;;;;;12.50;7.68;;;6.10;99.90;;;;;;4992007;28;20267;-81
2022/10/20 04:26:43;;;;;;;13.85;6.65;;;6.10;99.90;;;;;;4974527;28;20142;-81
2022/10/20 04:29:09;;;;;;;11.43;7.18;;;6.00;99.90;;;;;;4973795;28;20424;-80
2022/10/20 04:31:34;;;;;;;13.98;7.30;;;6.60;99.90;;;;;;4991878;28;20560;-81
2022/10/20 04:34:00;;;;;;;11.32;7.50;;;6.00;99.90;;;;;;4992108;28;20057;-82
2022/10/20 04:36:25;;;;;;;15.68;7.85;;;6.00;99.90;;;;;;4991502;28;20458;-81
2022/10/20 04:38:51;;;;;;;12.15;7.65;;;6.00;99.90;;;;;;4990060;28;20058;-82
2022/10/20 04:41:17;;;;;;;18.73;7.88;;;6.00;99.90;;;;;;4991839;28;20050;-81
2022/10/20 04:43:42;;;;;;;13.30;7.43;;;6.00;99.90;;;;;;4973873;28;20401;-83
2022/10/20 04:46:09;;;;;;;15.48;8.15;;;6.00;99.90;;;;;;4990319;28;20049;-82
2022/10/20 04:48:36;;;;;;;13.40;8.63;;;6.00;99.90;;;;;;4991011;28;20030;-83
2022/10/20 04:51:11;;;;;;;12.70;7.80;;;6.00;99.90;;;;;;4991529;28;20140;-85
2022/10/20 04:53:36;;;;;;;12.73;8.60;;;6.40;99.90;;;;;;4991433;28;20092;-84
2022/10/20 04:56:04;;;;;;;19.05;8.93;;;6.00;99.90;;;;;;4991503;28;20046;-84
2022/10/20 04:58:30;;;;;;;16.15;8.60;;;6.00;99.90;;;;;;4976336;28;20050;-84
2022/10/20 05:01:04;;;;;;;24.35;9.50;;;6.20;99.90;;;;;;4973986;28;20712;-83
2022/10/20 05:03:30;;;;;;;18.60;9.25;;;6.00;99.90;;;;;;4991503;28;20046;-87
2022/10/20 05:06:17;;;;;;;15.63;8.70;;;6.00;99.90;;;;;;4991248;28;20057;-84
2022/10/20 05:08:48;;;;;;;14.85;8.80;;;6.00;99.90;;;;;;4973198;28;20180;-84
2022/10/20 05:11:15;;;;;;;12.32;8.48;;;6.00;99.90;;;;;;4990911;28;20085;-86
2022/10/20 05:13:41;;;;;;;18.67;9.90;;;6.00;99.90;;;;;;5006576;28;20038;-84
2022/10/20 05:16:08;;;;;;;13.70;9.00;;;5.90;99.90;;;;;;5006240;28;20081;-84
2022/10/20 05:18:34;;;;;;;14.02;9.50;;;5.90;99.90;;;;;;4990692;28;20057;-88
2022/10/20 05:21:18;;;;;;;15.85;9.55;;;6.60;99.90;;;;;;4991392;28;20042;-80
2022/10/20 05:23:44;;;;;;;16.05;9.00;;;5.90;99.90;;;;;;4991266;28;20136;-85
2022/10/20 05:26:13;;;;;;;13.70;9.25;;;5.90;99.90;;;;;;4990641;28;20189;-86
2022/10/20 05:28:42;;;;;;;17.52;9.65;;;6.70;99.90;;;;;;4989771;28;20085;-85
2022/10/20 05:31:08;;;;;;;16.02;9.50;;;6.10;99.90;;;;;;4990004;28;20497;-86
2022/10/20 05:33:34;;;;;;;15.95;9.88;;;6.60;99.90;;;;;;4991028;28;20133;-81
2022/10/20 05:36:06;;;;;;;18.77;10.05;;;6.70;99.90;;;;;;5005794;28;20061;-85
2022/10/20 05:38:32;;;;;;;15.27;10.02;;;5.90;99.90;;;;;;4990282;28;20054;-85
2022/10/20 05:41:08;;;;;;;16.13;10.02;;;5.90;99.90;;;;;;4990200;28;20054;-84
2022/10/20 05:43:33;;;;;;;19.88;10.35;;;5.90;99.90;;;;;;4990990;28;20062;-86
2022/10/20 05:45:59;;;;;;;18.08;10.73;;;5.90;99.90;;;;;;4990277;28;20055;-90
2022/10/20 05:48:24;;;;;;;16.33;10.73;;;5.90;99.90;;;;;;4972675;28;20039;-84
2022/10/20 05:50:50;;;;;;;15.85;10.38;;;5.90;99.90;;;;;;4990935;28;20057;-83
2022/10/20 05:53:16;;;;;;;14.55;10.68;;;5.90;99.90;;;;;;4972729;28;20062;-85
2022/10/20 05:55:41;;;;;;;16.42;11.65;;;5.90;99.90;;;;;;4972881;28;20111;-86
2022/10/20 05:58:07;;;;;;;20.98;11.45;;;5.90;99.90;;;;;;4990335;28;20053;-87
2022/10/20 06:00:40;;;;;;;16.48;11.18;;;5.90;99.90;;;;;;4990213;28;20058;-85
2022/10/20 06:03:09;;;;;;;22.10;11.88;;;5.90;99.90;;;;;;4990417;28;20125;-88
2022/10/20 06:05:35;;;;;;;19.55;11.63;;;5.90;99.90;;;;;;4972885;28;20512;-86
2022/10/20 06:08:00;;;;;;;18.25;11.35;;;6.50;99.90;;;;;;4972578;28;20043;-82
2022/10/20 06:10:26;;;;;;;19.35;12.18;;;5.90;99.90;;;;;;4990523;28;20062;-81
2022/10/20 06:12:51;;;;;;;15.82;11.57;;;5.90;99.90;;;;;;4973080;28;20054;-81
2022/10/20 06:15:17;;;;;;;17.40;11.45;;;5.90;99.90;;;;;;4990480;28;20053;-84
2022/10/20 06:21:04;;;;;;;18.88;11.70;;;5.50;99.90;;;;;;5274957;23;20076;-86
2022/10/20 06:23:29;;;;;;;24.17;12.60;;;5.90;99.90;;;;;;5051479;28;20520;-84
2022/10/20 06:26:04;;;;;;;18.42;12.05;;;6.70;99.90;;;;;;5069616;28;20044;-82
2022/10/20 06:28:31;;;;;;;19.65;12.25;;;5.70;99.90;;;;;;5035344;28;20454;-81
2022/10/20 06:30:58;;;;;;;20.98;12.23;;;6.40;99.90;;;;;;5051159;28;20525;-84
2022/10/20 06:33:24;;;;;;;16.50;12.02;;;5.90;99.90;;;;;;5071830;28;20066;-85
2022/10/20 06:35:49;;;;;;;18.15;12.35;;;6.00;99.90;;;;;;5073575;28;20045;-83
2022/10/20 06:38:15;;;;;;;20.98;12.85;;;6.00;99.90;;;;;;5055872;28;20111;-83
2022/10/20 06:40:40;;;;;;;18.20;13.20;;;6.00;99.90;;;;;;5073329;28;20033;-81
2022/10/20 06:43:06;;;;;;;19.67;12.35;;;6.00;99.90;;;;;;5073849;28;20044;-86
2022/10/20 06:45:32;;;;;;;20.83;12.05;;;6.00;99.90;;;;;;5055518;28;20048;-81
2022/10/20 06:47:57;;;;;;;19.17;12.30;;;6.10;99.90;;;;;;5073052;28;20399;-84
2022/10/20 06:50:23;;;;;;;18.55;12.38;;;6.10;99.90;;;;;;5072636;28;20041;-81
2022/10/20 06:52:48;;;;;;;17.30;11.95;;;6.10;99.90;;;;;;5073272;28;20044;-83
2022/10/20 06:55:14;;;;;;;17.95;12.63;;;6.10;99.90;;;;;;5038249;28;20048;-83
2022/10/20 06:57:41;;;;;;;19.67;13.32;;;6.10;99.90;;;;;;5073107;28;20040;-82
2022/10/20 07:00:07;;;;;;;18.35;12.50;;;6.20;99.90;;;;;;5071140;28;20105;-82
2022/10/20 07:02:33;;;;;;;20.52;12.80;;;6.20;99.90;;;;;;5070310;28;20052;-81
2022/10/20 07:04:59;;;;;;;20.15;12.85;;;6.20;99.90;;;;;;5072876;28;20408;-81
2022/10/20 07:07:24;;;;;;;18.65;12.77;;;6.20;99.90;;;;;;5055287;28;20487;-82
2022/10/20 07:09:50;;;;;;;20.00;12.85;;;6.30;99.90;;;;;;5072605;28;20101;-81
2022/10/20 07:12:15;;;;;;;18.20;12.82;;;6.30;99.90;;;;;;5054859;28;20048;-81
2022/10/20 07:14:41;;;;;;;19.20;12.80;;;6.30;99.90;;;;;;5073162;28;20048;-82
2022/10/20 07:17:07;;;;;;;24.13;12.85;;;6.40;99.90;;;;;;5072638;28;20045;-83
2022/10/20 07:19:32;;;;;;;20.15;13.23;;;6.40;99.90;;;;;;5050974;28;20132;-81
2022/10/20 07:21:58;;;;;;;20.45;12.85;;;6.40;99.90;;;;;;5052402;28;20080;-82
2022/10/20 07:24:24;;;;;;;18.15;12.82;;;6.90;99.90;;;;;;5051486;28;20135;-81
2022/10/20 07:26:49;;;;;;;24.98;13.15;;;6.50;99.90;;;;;;5052819;28;20681;-84
2022/10/20 07:29:15;;;;;;;22.77;12.57;;;6.50;99.90;;;;;;5053132;28;20049;-82
2022/10/20 07:31:43;;;;;;;20.02;12.63;;;7.00;99.90;;;;;;5052130;28;20041;-80
2022/10/20 07:34:14;;;;;;;20.00;12.98;;;6.60;99.90;;;;;;5052198;28;20094;-82
2022/10/20 07:36:43;;;;;;;17.80;13.13;;;6.60;99.90;;;;;;5060485;28;20120;-82
2022/10/20 07:39:11;;;;;;;21.13;12.77;;;6.70;99.90;;;;;;5066396;28;20055;-83
2022/10/20 07:41:38;;;;;;;21.40;13.85;;;6.70;99.90;;;;;;5051456;28;20057;-81
2022/10/20 07:44:04;;;;;;;16.88;12.68;;;6.90;99.90;;;;;;5053234;28;20087;-84
2022/10/20 07:46:30;;;;;;;18.42;13.30;;;6.80;99.90;;;;;;5053028;28;20044;-83
2022/10/20 07:48:56;;;;;;;22.98;12.77;;;6.80;99.90;;;;;;5053041;28;20411;-83
2022/10/20 07:51:25;;;;;;;16.60;12.30;;;6.80;99.90;;;;;;5052252;28;20044;-84
2022/10/20 07:53:54;;;;;;;17.25;11.75;;;7.50;99.90;;;;;;5053604;28;20599;-85
2022/10/20 07:56:20;;;;;;;16.63;12.00;;;7.00;99.90;;;;;;5053125;28;20101;-82
2022/10/20 07:58:46;;;;;;;19.48;12.23;;;7.00;99.90;;;;;;5042574;28;20052;-80
2022/10/20 08:01:12;;;;;;;22.02;12.32;;;7.00;99.90;;;;;;5051902;28;20057;-83
2022/10/20 08:03:37;;;;;;;16.50;12.07;;;7.10;99.90;;;;;;5067386;28;20041;-81
2022/10/20 08:06:05;;;;;;;17.88;11.70;;;7.20;99.90;;;;;;5050251;28;20128;-79
2022/10/20 08:08:31;;;;;;;17.30;11.90;;;7.20;99.90;;;;;;5049946;28;20056;-82
2022/10/20 08:10:57;;;;;;;20.70;12.10;;;7.30;99.90;;;;;;5051777;28;20045;-82
2022/10/20 08:13:24;;;;;;;21.25;12.70;;;7.30;99.90;;;;;;5050714;28;20053;-82
2022/10/20 08:15:50;;;;;;;19.83;12.35;;;7.40;99.90;;;;;;5052335;28;20068;-85
2022/10/20 08:18:15;;;;;;;17.38;11.65;;;7.50;99.90;;;;;;5049858;28;20518;-78
2022/10/20 08:20:41;;;;;;;18.77;12.10;;;7.50;99.90;;;;;;5063642;28;20415;-87
2022/10/20 08:23:07;;;;;;;17.67;11.95;;;7.70;99.90;;;;;;5036611;28;20049;-82
2022/10/20 08:25:33;;;;;;;19.45;11.88;;;7.60;99.90;;;;;;5071137;28;20025;-84
2022/10/20 08:27:59;;;;;;;15.07;11.63;;;8.20;99.90;;;;;;5072108;28;20460;-82
2022/10/20 08:30:25;;;;;;;15.25;11.30;;;8.00;99.90;;;;;;5071795;28;20407;-82
2022/10/20 08:32:51;;;;;;;18.63;12.15;;;7.90;99.90;;;;;;5053828;28;20388;-83
2022/10/20 08:35:17;;;;;;;17.75;10.93;;;8.40;99.90;;;;;;5073483;28;20159;-81
2022/10/20 08:37:43;;;;;;;14.45;10.73;;;8.00;99.90;;;;;;5071896;28;20509;-86
2022/10/20 08:40:15;;;;;;;13.77;10.55;;;8.00;99.90;;;;;;5083972;28;20032;-84
2022/10/20 08:42:46;;;;;;;20.05;10.50;;;8.10;99.90;;;;;;5053188;28;20395;-84
2022/10/20 08:45:17;;;;;;;15.77;10.57;;;8.20;99.90;;;;;;5071592;28;20049;-83
2022/10/20 08:47:45;;;;;;;16.83;11.15;;;8.20;99.90;;;;;;5071519;28;20033;-82
2022/10/20 08:50:15;;;;;;;15.43;10.68;;;8.50;99.90;;;;;;5071340;28;20052;-80
2022/10/20 08:52:42;;;;;;;13.90;9.93;;;8.40;99.90;;;;;;5053349;28;20052;-82
2022/10/20 08:55:32;;;;;;;22.90;10.55;;;8.50;99.90;;;;;;5035968;28;20115;-87
2022/10/20 08:58:06;;;;;;;15.80;10.30;;;8.60;99.90;;;;;;5071905;28;20109;-84
2022/10/20 09:00:36;;;;;;;15.20;9.43;;;8.80;99.90;;;;;;5054077;28;20127;-81
2022/10/20 09:03:29;;;;;;;15.20;9.73;;;8.90;99.90;;;;;;5072608;28;20041;-82
2022/10/20 09:06:14;;;;;;;17.15;9.60;;;9.00;99.90;;;;;;5070767;28;20147;-83
2022/10/20 09:08:41;;;;;;;13.50;8.90;;;9.20;99.90;;;;;;5053121;28;20384;-85
2022/10/20 09:11:12;;;;;;;16.92;9.60;;;9.60;99.90;;;;;;5070474;28;20079;-87
2022/10/20 09:13:38;;;;;;;17.58;9.38;;;9.40;99.90;;;;;;5070283;28;20085;-88
2022/10/20 09:16:09;;;;;;;13.38;8.75;;;9.50;99.90;;;;;;5052446;28;20052;-79
2022/10/20 09:18:35;;;;;;;18.52;9.27;;;9.50;99.90;;;;;;5070745;28;20060;-84
2022/10/20 09:21:14;;;;;;;14.52;9.32;;;9.60;99.90;;;;;;5052310;28;20052;-84
2022/10/20 09:23:42;;;;;;;22.27;8.85;;;9.60;99.90;;;;;;5070093;28;20033;-86
2022/10/20 09:26:15;;;;;;;14.02;8.93;;;9.70;99.90;;;;;;5052355;28;20090;-81
2022/10/20 09:28:40;;;;;;;10.45;7.95;;;9.70;99.90;;;;;;5052479;28;20139;-81
2022/10/20 09:31:22;;;;;;;12.07;8.73;;;9.80;99.90;;;;;;5052428;28;20257;-84
2022/10/20 09:33:48;;;;;;;14.32;8.43;;;9.90;99.90;;;;;;5070222;28;20384;-83
2022/10/20 09:36:17;;;;;;;10.82;7.70;;;9.90;99.90;;;;;;5070039;28;20097;-84
2022/10/20 09:38:50;;;;;;;20.75;8.13;;;10.00;99.90;;;;;;5069840;28;20617;-86
2022/10/20 09:41:29;;;;;;;16.58;7.85;;;10.10;99.90;;;;;;5069633;28;20041;-84
2022/10/20 09:44:01;;;;;;;14.73;8.05;;;10.10;99.90;;;;;;5052515;28;20056;-89
2022/10/20 09:46:37;;;;;;;13.57;8.05;;;10.10;99.90;;;;;;5051954;28;20048;-84
2022/10/20 09:49:05;;;;;;;14.18;7.80;;;10.10;99.90;;;;;;5035420;28;20411;-84
2022/10/20 09:51:32;;;;;;;12.70;8.27;;;10.20;99.90;;;;;;5069697;28;20057;-77
2022/10/20 09:54:01;;;;;;;11.60;7.78;;;10.20;99.90;;;;;;5070188;28;20059;-84
2022/10/20 09:56:35;;;;;;;9.93;7.40;;;10.30;99.90;;;;;;5070331;28;20040;-88
2022/10/20 09:59:23;;;;;;;11.15;7.60;;;10.40;99.90;;;;;;5045377;28;20119;-82
2022/10/20 10:02:16;;;;;;;13.10;7.72;;;10.40;99.90;;;;;;5032103;28;20072;-82
2022/10/20 10:04:43;;;;;;;16.27;7.85;;;10.50;99.90;;;;;;5061181;28;20063;-84
2022/10/20 10:07:21;;;;;;;11.75;6.93;;;10.60;99.90;;;;;;5069557;28;20124;-80
2022/10/20 10:10:20;;;;;;;11.38;7.38;;;10.60;99.90;;;;;;5059419;28;20051;-82
2022/10/20 10:12:54;;;;;;;11.90;7.28;;;10.70;99.90;;;;;;5051324;28;20131;-80
2022/10/20 10:15:33;;;;;;;10.85;6.80;;;10.80;99.90;;;;;;5050795;28;20080;-81
2022/10/20 10:17:59;;;;;;;12.82;7.15;;;11.00;99.90;;;;;;5069129;28;20495;-82
2022/10/20 10:20:33;;;;;;;14.73;7.47;;;11.20;99.90;;;;;;5069157;28;20526;-89
2022/10/20 10:23:19;;;;;;;11.05;7.53;;;11.30;99.90;;;;;;5034512;28;20056;-80
2022/10/20 10:25:44;;;;;;;11.98;6.95;;;11.50;99.90;;;;;;5069122;28;20523;-81
2022/10/20 10:28:37;;;;;;;13.75;6.88;;;11.80;99.90;;;;;;5069629;28;20032;-80
2022/10/20 10:31:15;;;;;;;10.13;7.03;;;12.00;99.90;;;;;;5067070;28;20048;-83
2022/10/20 10:33:41;;;;;;;10.35;8.20;;;12.20;99.90;;;;;;5047967;28;20056;-82
2022/10/20 10:36:26;;;;;;;13.85;6.85;;;12.40;99.90;;;;;;5067073;28;20407;-84
2022/10/20 10:38:52;;;;;;;;;;;12.50;99.90;;;;;;5059255;28;20052;-79
2022/10/20 10:41:29;;;;;;;10.45;6.30;;;12.70;99.90;;;;;;5049813;28;19920;-82
2022/10/20 10:44:08;;;;;;;10.50;6.32;;;12.80;99.90;;;;;;5044047;28;20454;-81
2022/10/20 10:46:40;;;;;;;13.50;6.45;;;12.70;99.90;;;;;;5064822;28;20048;-81
2022/10/20 10:49:17;;;;;;;10.70;6.30;;;12.80;99.90;;;;;;5069504;28;20044;-81
2022/10/20 10:51:43;;;;;;;12.85;5.68;;;12.90;99.90;;;;;;5051572;28;20044;-81
2022/10/20 10:54:18;;;;;;;15.27;6.15;;;13.00;99.90;;;;;;5069316;28;20582;-80
2022/10/20 10:56:48;;;;;;;9.38;5.80;;;13.10;99.90;;;;;;5069188;28;20078;-83
2022/10/20 10:59:23;;;;;;;8.27;5.28;;;13.00;99.90;;;;;;5069349;28;20174;-82
2022/10/20 11:02:01;;;;;;;9.05;5.75;;;13.10;99.90;;;;;;5049183;28;20055;-82
2022/10/20 11:04:51;;;;;;;9.98;5.65;;;13.20;99.90;;;;;;5066337;28;20380;-82
2022/10/20 11:07:35;;;;;;;7.97;5.57;;;13.30;99.90;;;;;;5068763;28;20043;-81
2022/10/20 11:10:19;;;;;;;10.02;6.05;;;13.40;99.90;;;;;;5069027;28;20052;-82
2022/10/20 11:12:56;;;;;;;9.70;5.80;;;13.30;99.90;;;;;;5069250;28;20044;-79
2022/10/20 11:15:59;;;;;;;10.07;6.45;;;13.40;99.90;;;;;;5068329;28;20044;-84
2022/10/20 11:18:36;;;;;;;11.07;5.63;;;13.50;99.90;;;;;;5052457;28;20044;-85
2022/10/20 11:21:30;;;;;;;10.85;5.90;;;13.50;99.90;;;;;;5049346;28;20529;-81
2022/10/20 11:24:33;;;;;;;12.73;5.88;;;13.50;99.90;;;;;;5071723;28;20045;-84
2022/10/20 11:27:12;;;;;;;13.50;5.82;;;13.50;99.90;;;;;;5072968;28;20040;-82
2022/10/20 11:29:50;;;;;;;14.02;6.38;;;13.50;99.90;;;;;;5054276;28;20049;-82
2022/10/20 11:32:38;;;;;;;9.15;6.05;;;13.60;99.90;;;;;;5072150;28;20055;-81
2022/10/20 11:35:16;;;;;;;8.40;5.55;;;13.50;99.90;;;;;;5058340;28;20048;-83
2022/10/20 11:37:53;;;;;;;13.45;5.93;;;13.50;99.90;;;;;;5053850;28;20052;-83
2022/10/20 11:40:23;;;;;;;11.50;5.90;;;13.50;99.90;;;;;;5041301;28;20132;-81
2022/10/20 11:43:33;;;;;;;14.75;7.05;;;13.40;99.90;;;;;;5034353;28;20516;-81
2022/10/20 11:46:08;;;;;;;8.57;5.63;;;13.50;99.90;;;;;;5001483;28;20408;-80
2022/10/20 11:48:37;;;;;;;;;;;13.50;99.90;;;;;;5030022;28;20131;-83
2022/10/20 11:51:30;;;;;;;10.25;6.07;;;13.40;99.90;;;;;;5029822;28;19925;-81
2022/10/20 11:54:01;;;;;;;14.60;5.78;;;13.40;99.90;;;;;;5029455;28;20567;-82
2022/10/20 11:56:34;;;;;;;11.98;5.72;;;13.40;99.90;;;;;;5029276;28;20524;-83
2022/10/20 11:59:37;;;;;;;9.35;5.90;;;13.40;99.90;;;;;;5013005;28;20037;-81
2022/10/20 12:02:50;;;;;;;9.02;4.85;;;13.50;99.90;;;;;;5029175;28;20064;-81
2022/10/20 12:05:52;;;;;;;13.73;5.75;;;13.40;99.90;;;;;;4970664;28;20063;-81
2022/10/20 12:08:39;;;;;;;10.13;5.40;;;13.40;99.90;;;;;;4970240;28;20046;-80
2022/10/20 12:11:19;;;;;;;8.18;5.80;;;13.40;99.90;;;;;;4971013;28;20526;-80
2022/10/20 12:14:15;;;;;;;15.50;6.63;;;13.50;99.90;;;;;;4970849;28;20065;-82
2022/10/20 12:16:53;;;;;;;10.80;6.15;;;13.30;99.90;;;;;;4970630;28;20065;-82
2022/10/20 12:19:30;;;;;;;10.20;5.63;;;13.30;99.90;;;;;;4969661;28;20469;-79
2022/10/20 12:22:21;;;;;;;10.00;5.30;;;13.30;99.90;;;;;;4982217;28;20046;-81
2022/10/20 12:24:49;;;;;;;10.85;6.15;;;13.30;99.90;;;;;;5005877;28;20062;-80
2022/10/20 12:27:18;;;;;;;20.20;6.13;;;13.30;99.90;;;;;;5009360;28;20440;-81
2022/10/20 12:29:45;;;;;;;11.25;5.65;;;13.30;99.90;;;;;;5008066;28;20060;-81
2022/10/20 12:32:49;;;;;;;10.65;5.82;;;13.20;99.90;;;;;;4993017;28;20041;-84
2022/10/20 12:35:15;;;;;;;12.15;6.35;;;13.20;99.90;;;;;;5008231;28;20084;-81
2022/10/20 12:37:41;;;;;;;9.98;6.55;;;13.20;99.90;;;;;;4993141;28;20053;-81
2022/10/20 12:40:06;;;;;;;14.02;6.63;;;13.20;99.90;;;;;;4976196;28;20058;-81
2022/10/20 12:42:34;;;;;;;16.50;7.13;;;13.20;99.90;;;;;;5055753;28;20048;-88
2022/10/20 12:45:20;;;;;;;11.48;6.95;;;13.10;99.90;;;;;;5053599;28;20127;-84
2022/10/20 12:47:58;;;;;;;11.52;7.55;;;13.40;99.90;;;;;;5069341;28;20553;-84
2022/10/20 12:50:32;;;;;;;10.82;7.10;;;13.00;99.90;;;;;;5036541;28;20055;-82
2022/10/20 12:53:16;;;;;;;11.80;7.45;;;12.90;99.90;;;;;;5071107;28;20056;-84
2022/10/20 12:55:45;;;;;;;13.60;8.38;;;12.90;99.90;;;;;;5053353;28;20126;-85
2022/10/20 12:58:17;;;;;;;13.30;8.00;;;12.80;99.90;;;;;;5052763;28;20032;-84
2022/10/20 13:00:45;;;;;;;14.35;7.35;;;13.10;99.90;;;;;;5070817;28;20486;-84
2022/10/20 13:03:30;;;;;;;16.00;8.05;;;12.70;99.90;;;;;;5071234;28;20044;-82
2022/10/20 13:05:57;;;;;;;10.85;7.88;;;12.60;99.90;;;;;;5070697;28;20049;-87
2022/10/20 13:08:24;;;;;;;12.75;7.53;;;12.70;99.90;;;;;;5052519;28;20071;-89
2022/10/20 13:10:52;;;;;;;12.05;7.82;;;13.10;99.90;;;;;;5052812;28;20045;-83
2022/10/20 13:13:18;;;;;;;13.05;7.97;;;12.90;99.90;;;;;;5036370;28;20048;-84